Aransas Pass — WDF5061 — position and weather

sailwx.info

Track history (hours):
 
Tides and Currents Weather Stations Pressure Air Temp Water Temp Dewpoint Dewpoint Depression Visibility Wind Speed Wind Dir Waves Ship Positions

Aransas Pass

Owner: Higman Barge Lines, Inc., Orange, TX. More information available from US FCC via Universal Licensing System and Coast Guard Vessel Documentation Center.

Last reported at 2015-Jul-31 10:34 UTC. Time now 2015-Jul-31 11:24 UTC.
Position N 29°44' W 095°08'.

Length 26 m; draft 3 m.

Type: Towing. MMSI: 367458930.

Date/timePositionNaut miles runAvg speedWind from/ knotsBaromVisibWave heightAir tempDewpointWater temp
2015-Jul-31 10:34N 29°44' W 095°08'0 0.0
2015-Jul-31 09:33N 29°44' W 095°08'0 0.0
2015-Jul-31 08:23N 29°44' W 095°08'0 0.0
2015-Jul-31 07:33N 29°44' W 095°08'0 0.0
2015-Jul-31 06:34N 29°44' W 095°08'0 0.0
2015-Jul-31 05:33N 29°44' W 095°08'0 0.0
2015-Jul-31 04:33N 29°44' W 095°08'0 0.0
2015-Jul-31 03:32N 29°44' W 095°08'0 0.0
2015-Jul-31 02:34N 29°44' W 095°08'0 0.0
2015-Jul-31 01:33N 29°44' W 095°08'0 0.0
2015-Jul-31 00:33N 29°44' W 095°08'0 0.0
2015-Jul-30 23:32N 29°44' W 095°08'0 0.0
2015-Jul-30 21:33N 29°44' W 095°08'0 0.0
2015-Jul-30 20:33N 29°44' W 095°08'0 0.0
2015-Jul-30 19:33N 29°44' W 095°08'0 0.0
2015-Jul-30 18:33N 29°44' W 095°08'0 0.0
2015-Jul-30 17:33N 29°44' W 095°08'0 0.0
2015-Jul-30 16:33N 29°44' W 095°08'0 0.0
2015-Jul-30 15:33N 29°44' W 095°08'0 0.0
2015-Jul-30 14:33N 29°44' W 095°08'0 0.0
2015-Jul-30 01:05N 29°44' W 095°08'0 0.0
2015-Jul-29 03:33N 29°44' W 095°08'0 0.0
2015-Jul-28 11:33N 29°44' W 095°07'0 0.0
2015-Jul-27 20:33N 29°44' W 095°08'3 0.3
2015-Jul-27 11:16N 29°46' W 095°05'2 0.1
2015-Jul-26 23:19N 29°45' W 095°07'0 0.0
2015-Jul-26 13:28N 29°45' W 095°07'2 0.1
2015-Jul-25 13:08N 29°46' W 095°06'2 3.2
2015-Jul-25 12:32N 29°45' W 095°07'0 0.0
2015-Jul-25 11:24N 29°45' W 095°07'0 0.0
2015-Jul-25 10:29N 29°45' W 095°07'0 0.0
2015-Jul-25 08:25N 29°45' W 095°07'0 0.0
2015-Jul-25 07:33N 29°45' W 095°07'0 0.0
2015-Jul-25 06:30N 29°45' W 095°07'0 0.0
2015-Jul-25 05:29N 29°45' W 095°07'0 0.0
2015-Jul-25 04:23N 29°45' W 095°07'0 0.0
2015-Jul-25 03:09N 29°45' W 095°07'0 0.0
2015-Jul-25 00:33N 29°45' W 095°07'0 0.0
2015-Jul-24 23:32N 29°45' W 095°07'0 0.0
2015-Jul-24 22:11N 29°45' W 095°07'0 0.0
2015-Jul-24 21:33N 29°45' W 095°07'0 0.0
2015-Jul-24 19:24N 29°45' W 095°06'1 1.3
2015-Jul-24 18:17N 29°46' W 095°06'6 0.2
2015-Jul-23 13:05N 29°45' W 095°12'0 0.0
2015-Jul-23 09:23N 29°45' W 095°12'0 0.0
2015-Jul-23 07:23N 29°45' W 095°12'0 0.0
2015-Jul-23 06:29N 29°45' W 095°12'0 0.0
2015-Jul-23 05:22N 29°45' W 095°12'0 0.0
2015-Jul-23 04:32N 29°45' W 095°12'0 0.0
2015-Jul-23 03:13N 29°45' W 095°12'1 0.4
2015-Jul-22 23:33N 29°45' W 095°11'  
Track history (hours):
 
Tides and Currents Weather Stations Pressure Air Temp Water Temp Dewpoint Dewpoint Depression Visibility Wind Speed Wind Dir Waves Ship Positions

Aransas Pass

Owner: Higman Barge Lines, Inc., Orange, TX. More information available from US FCC via Universal Licensing System and Coast Guard Vessel Documentation Center.

Last reported at 2015-Jul-31 10:34 UTC. Time now 2015-Jul-31 11:24 UTC.
Position N 29°44' W 095°08'.

Length 26 m; draft 3 m.

Type: Towing. MMSI: 367458930.

Date/timePositionNaut miles runAvg speedWind from/ knotsBaromVisibWave heightAir tempDewpointWater temp
2015-Jul-31 10:34N 29°44' W 095°08'0 0.0
2015-Jul-31 09:33N 29°44' W 095°08'0 0.0
2015-Jul-31 08:23N 29°44' W 095°08'0 0.0
2015-Jul-31 07:33N 29°44' W 095°08'0 0.0
2015-Jul-31 06:34N 29°44' W 095°08'0 0.0
2015-Jul-31 05:33N 29°44' W 095°08'0 0.0
2015-Jul-31 04:33N 29°44' W 095°08'0 0.0
2015-Jul-31 03:32N 29°44' W 095°08'0 0.0
2015-Jul-31 02:34N 29°44' W 095°08'0 0.0
2015-Jul-31 01:33N 29°44' W 095°08'0 0.0
2015-Jul-31 00:33N 29°44' W 095°08'0 0.0
2015-Jul-30 23:32N 29°44' W 095°08'0 0.0
2015-Jul-30 21:33N 29°44' W 095°08'0 0.0
2015-Jul-30 20:33N 29°44' W 095°08'0 0.0
2015-Jul-30 19:33N 29°44' W 095°08'0 0.0
2015-Jul-30 18:33N 29°44' W 095°08'0 0.0
2015-Jul-30 17:33N 29°44' W 095°08'0 0.0
2015-Jul-30 16:33N 29°44' W 095°08'0 0.0
2015-Jul-30 15:33N 29°44' W 095°08'0 0.0
2015-Jul-30 14:33N 29°44' W 095°08'0 0.0
2015-Jul-30 01:05N 29°44' W 095°08'0 0.0
2015-Jul-29 03:33N 29°44' W 095°08'0 0.0
2015-Jul-28 11:33N 29°44' W 095°07'0 0.0
2015-Jul-27 20:33N 29°44' W 095°08'3 0.3
2015-Jul-27 11:16N 29°46' W 095°05'2 0.1
2015-Jul-26 23:19N 29°45' W 095°07'0 0.0
2015-Jul-26 13:28N 29°45' W 095°07'2 0.1
2015-Jul-25 13:08N 29°46' W 095°06'2 3.2
2015-Jul-25 12:32N 29°45' W 095°07'0 0.0
2015-Jul-25 11:24N 29°45' W 095°07'0 0.0
2015-Jul-25 10:29N 29°45' W 095°07'0 0.0
2015-Jul-25 08:25N 29°45' W 095°07'0 0.0
2015-Jul-25 07:33N 29°45' W 095°07'0 0.0
2015-Jul-25 06:30N 29°45' W 095°07'0 0.0
2015-Jul-25 05:29N 29°45' W 095°07'0 0.0
2015-Jul-25 04:23N 29°45' W 095°07'0 0.0
2015-Jul-25 03:09N 29°45' W 095°07'0 0.0
2015-Jul-25 00:33N 29°45' W 095°07'0 0.0
2015-Jul-24 23:32N 29°45' W 095°07'0 0.0
2015-Jul-24 22:11N 29°45' W 095°07'0 0.0
2015-Jul-24 21:33N 29°45' W 095°07'0 0.0
2015-Jul-24 19:24N 29°45' W 095°06'1 1.3
2015-Jul-24 18:17N 29°46' W 095°06'6 0.2
2015-Jul-23 13:05N 29°45' W 095°12'0 0.0
2015-Jul-23 09:23N 29°45' W 095°12'0 0.0
2015-Jul-23 07:23N 29°45' W 095°12'0 0.0
2015-Jul-23 06:29N 29°45' W 095°12'0 0.0
2015-Jul-23 05:22N 29°45' W 095°12'0 0.0
2015-Jul-23 04:32N 29°45' W 095°12'0 0.0
2015-Jul-23 03:13N 29°45' W 095°12'1 0.4
2015-Jul-22 23:33N 29°45' W 095°11'  

Dump ship's entire track history